createdAt,value
2018-09-26T00:01:10.312Z,3.90
2018-09-26T00:03:44.850Z,3.76
2018-09-26T00:06:13.240Z,3.89
2018-09-26T00:08:41.726Z,3.83
2018-09-26T00:11:10.161Z,3.94
2018-09-26T00:13:38.754Z,3.83
2018-09-26T00:16:07.614Z,3.98
2018-09-26T00:18:36.122Z,3.85
2018-09-26T00:21:04.574Z,3.92
2018-09-26T00:23:33.105Z,3.90
2018-09-26T00:26:01.630Z,3.87
2018-09-26T00:28:30.046Z,3.83
2018-09-26T00:30:58.507Z,3.62
2018-09-26T00:33:26.882Z,3.77
2018-09-26T00:35:55.390Z,3.75
2018-09-26T00:38:23.734Z,3.80
2018-09-26T00:40:52.207Z,3.85
2018-09-26T00:43:20.693Z,3.74
2018-09-26T00:45:49.004Z,3.76
2018-09-26T00:48:17.417Z,3.78
2018-09-26T00:50:45.829Z,3.78
2018-09-26T00:53:14.187Z,3.56
2018-09-26T00:55:42.679Z,3.39
2018-09-26T00:58:11.062Z,3.56
2018-09-26T01:00:39.843Z,3.48
2018-09-26T01:03:08.199Z,3.50
2018-09-26T01:05:36.622Z,3.61
2018-09-26T01:08:05.097Z,3.46
2018-09-26T01:10:33.482Z,3.49
2018-09-26T01:13:01.918Z,3.51
2018-09-26T01:15:30.341Z,3.52
2018-09-26T01:17:58.758Z,3.45
2018-09-26T01:20:27.209Z,3.57
2018-09-26T01:22:55.575Z,3.31
2018-09-26T01:25:25.025Z,3.30
2018-09-26T01:27:53.436Z,3.54
2018-09-26T01:30:21.939Z,3.37
2018-09-26T01:32:50.399Z,3.32
2018-09-26T01:35:18.714Z,3.32
2018-09-26T01:37:47.134Z,3.25
2018-09-26T01:40:15.690Z,3.28
2018-09-26T01:42:44.092Z,3.44
2018-09-26T01:45:12.594Z,3.41
2018-09-26T01:47:41.078Z,3.42
2018-09-26T01:50:09.689Z,3.46
2018-09-26T01:52:38.071Z,3.44
2018-09-26T01:55:06.582Z,3.55
2018-09-26T01:57:35.050Z,3.47
2018-09-26T02:00:03.500Z,3.59
2018-09-26T02:02:31.940Z,3.52
2018-09-26T02:05:03.407Z,3.56
2018-09-26T02:07:31.829Z,3.46
2018-09-26T02:10:00.222Z,3.51
2018-09-26T02:12:28.646Z,3.63
2018-09-26T02:14:56.970Z,3.66
2018-09-26T02:17:25.326Z,3.55
2018-09-26T02:19:53.682Z,3.78
2018-09-26T02:22:22.141Z,3.80
2018-09-26T02:24:50.551Z,3.82
2018-09-26T02:27:18.997Z,3.81
2018-09-26T02:29:47.342Z,3.81
2018-09-26T02:32:15.741Z,3.82
2018-09-26T02:34:44.317Z,3.75
2018-09-26T02:37:12.682Z,3.74
2018-09-26T02:39:41.146Z,3.75
2018-09-26T02:42:09.551Z,3.78
2018-09-26T02:44:37.938Z,3.89
2018-09-26T02:47:06.310Z,4.06
2018-09-26T02:49:34.793Z,4.10
2018-09-26T02:52:03.205Z,4.12
2018-09-26T02:54:31.574Z,4.09
2018-09-26T02:56:59.875Z,4.19
2018-09-26T02:59:28.208Z,4.13
2018-09-26T03:01:56.607Z,4.26
2018-09-26T03:04:25.070Z,4.27
2018-09-26T03:06:53.523Z,4.15
2018-09-26T03:09:21.932Z,4.32
2018-09-26T03:11:50.348Z,4.16
2018-09-26T03:14:20.773Z,4.29
2018-09-26T03:16:49.182Z,4.33
2018-09-26T03:19:17.545Z,4.16
2018-09-26T03:21:45.975Z,4.30
2018-09-26T03:24:14.336Z,4.42
2018-09-26T03:26:43.425Z,4.31
2018-09-26T03:29:11.913Z,4.31
2018-09-26T03:31:40.314Z,4.38
2018-09-26T03:34:08.597Z,4.33
2018-09-26T03:36:36.860Z,4.35
2018-09-26T03:39:06.977Z,4.25
2018-09-26T03:41:35.261Z,4.35
2018-09-26T03:44:03.613Z,4.26
2018-09-26T03:46:31.870Z,4.32
2018-09-26T03:49:00.133Z,4.27
2018-09-26T03:51:28.426Z,4.30
2018-09-26T03:53:56.777Z,4.35
2018-09-26T03:56:25.165Z,4.36
2018-09-26T03:58:53.452Z,4.34
2018-09-26T04:01:21.785Z,4.44
2018-09-26T04:03:50.101Z,4.42
2018-09-26T04:06:18.416Z,4.43
2018-09-26T04:08:46.648Z,4.52
2018-09-26T04:11:15.013Z,4.23
2018-09-26T04:13:44.016Z,4.25
2018-09-26T04:16:12.284Z,4.29
2018-09-26T04:18:40.580Z,4.29
2018-09-26T04:21:15.288Z,4.19
2018-09-26T04:23:43.641Z,4.11
2018-09-26T04:26:12.049Z,4.05
2018-09-26T04:28:40.241Z,4.12
2018-09-26T04:31:08.561Z,4.25
2018-09-26T04:33:36.910Z,4.19
2018-09-26T04:36:05.782Z,4.17
2018-09-26T04:38:34.108Z,4.12
2018-09-26T04:41:02.288Z,4.15
2018-09-26T04:43:30.552Z,4.15
2018-09-26T04:45:58.796Z,4.04
2018-09-26T04:48:27.238Z,4.20
2018-09-26T04:50:55.621Z,4.14
2018-09-26T04:53:23.949Z,4.13
2018-09-26T04:55:52.233Z,4.11
2018-09-26T04:58:20.586Z,4.16
2018-09-26T05:00:48.890Z,4.11
2018-09-26T05:03:17.219Z,4.06
2018-09-26T05:05:45.535Z,4.07
2018-09-26T05:08:13.926Z,4.06
2018-09-26T05:10:42.260Z,3.99
2018-09-26T05:13:10.554Z,3.98
2018-09-26T05:15:38.881Z,4.05
2018-09-26T05:18:07.224Z,4.35
2018-09-26T05:20:35.592Z,4.42
2018-09-26T05:23:03.891Z,4.47
2018-09-26T05:25:32.286Z,4.68
2018-09-26T05:28:00.771Z,4.61
2018-09-26T05:30:29.171Z,4.50
2018-09-26T05:32:57.424Z,4.44
2018-09-26T05:35:25.843Z,4.45
2018-09-26T05:37:54.138Z,4.38
2018-09-26T05:40:22.509Z,4.22
2018-09-26T05:42:50.886Z,4.25
2018-09-26T05:45:19.202Z,4.29
2018-09-26T05:47:48.138Z,4.27
2018-09-26T05:50:16.548Z,4.28
2018-09-26T05:52:45.081Z,4.46
2018-09-26T05:55:13.492Z,4.54
2018-09-26T05:57:41.970Z,4.48
2018-09-26T06:00:10.355Z,4.56
2018-09-26T06:02:38.627Z,4.53
2018-09-26T06:05:06.926Z,4.61
2018-09-26T06:07:35.274Z,4.82
2018-09-26T06:10:03.608Z,4.91
2018-09-26T06:12:31.901Z,5.03
2018-09-26T06:15:00.223Z,5.21
2018-09-26T06:17:28.602Z,5.33
2018-09-26T06:19:57.027Z,5.39
2018-09-26T06:22:25.358Z,5.64
2018-09-26T06:24:53.658Z,5.84
2018-09-26T06:27:22.034Z,5.93
2018-09-26T06:29:50.385Z,6.12
2018-09-26T06:32:18.703Z,6.22
2018-09-26T06:34:46.979Z,6.28
2018-09-26T06:37:15.330Z,6.45
2018-09-26T06:39:43.625Z,6.44
2018-09-26T06:42:11.964Z,6.58
2018-09-26T06:44:40.282Z,6.81
2018-09-26T06:47:08.642Z,6.84
2018-09-26T06:49:37.016Z,6.89
2018-09-26T06:52:05.430Z,7.07
2018-09-26T06:54:33.908Z,7.13
2018-09-26T06:57:02.215Z,7.14
2018-09-26T06:59:30.580Z,7.18
2018-09-26T07:01:58.890Z,7.32
2018-09-26T07:04:27.227Z,7.49
2018-09-26T07:06:55.509Z,7.63
2018-09-26T07:09:23.832Z,7.84
2018-09-26T07:11:52.115Z,7.88
2018-09-26T07:14:20.537Z,7.94
2018-09-26T07:16:48.814Z,8.02
2018-09-26T07:19:17.180Z,8.02
2018-09-26T07:21:45.540Z,8.13
2018-09-26T07:24:13.855Z,8.30
2018-09-26T07:26:42.162Z,8.47
2018-09-26T07:29:10.606Z,8.60
2018-09-26T07:31:38.953Z,8.68
2018-09-26T07:34:07.495Z,8.78
2018-09-26T07:36:35.767Z,8.95
2018-09-26T07:39:04.727Z,9.05
2018-09-26T07:41:33.071Z,9.05
2018-09-26T07:44:01.383Z,9.19
2018-09-26T07:46:29.675Z,9.12
2018-09-26T07:48:58.006Z,9.25
2018-09-26T07:51:26.342Z,9.23
2018-09-26T07:53:54.649Z,9.64
2018-09-26T07:56:22.926Z,9.68
2018-09-26T07:58:51.250Z,9.59
2018-09-26T08:01:19.555Z,9.70
2018-09-26T08:03:47.914Z,9.75
2018-09-26T08:06:16.374Z,9.52
2018-09-26T08:08:44.724Z,9.58
2018-09-26T08:11:13.184Z,9.53
2018-09-26T08:13:41.487Z,9.62
2018-09-26T08:16:09.831Z,9.67
2018-09-26T08:18:38.249Z,9.81
2018-09-26T08:21:06.765Z,9.80
2018-09-26T08:23:35.067Z,9.79
2018-09-26T08:26:03.391Z,9.83
2018-09-26T08:28:31.682Z,9.80
2018-09-26T08:30:59.970Z,9.83
2018-09-26T08:33:28.302Z,9.87
2018-09-26T08:35:56.639Z,9.97
2018-09-26T08:38:24.982Z,10.08
2018-09-26T08:40:53.487Z,10.06
2018-09-26T08:43:21.832Z,10.28
2018-09-26T08:45:50.128Z,10.30
2018-09-26T08:48:18.447Z,10.41
2018-09-26T08:50:46.747Z,10.48
2018-09-26T08:53:15.094Z,10.62
2018-09-26T08:55:43.395Z,10.66
2018-09-26T08:58:11.767Z,10.45
2018-09-26T09:00:40.140Z,10.70
2018-09-26T09:03:08.698Z,10.75
2018-09-26T09:05:37.367Z,10.68
2018-09-26T09:08:05.687Z,10.69
2018-09-26T09:10:33.992Z,10.65
2018-09-26T09:13:02.321Z,10.68
2018-09-26T09:15:30.657Z,10.83
2018-09-26T09:17:58.998Z,11.01
2018-09-26T09:20:27.267Z,10.89
2018-09-26T09:22:55.572Z,10.85
2018-09-26T09:25:23.848Z,10.97
2018-09-26T09:27:52.282Z,10.95
2018-09-26T09:30:20.709Z,11.01
2018-09-26T09:32:49.815Z,11.12
2018-09-26T09:35:18.432Z,11.13
2018-09-26T09:37:46.714Z,11.18
2018-09-26T09:40:15.005Z,11.41
2018-09-26T09:42:43.543Z,11.30
2018-09-26T09:45:11.839Z,11.40
2018-09-26T09:47:40.110Z,11.25
2018-09-26T09:50:08.601Z,11.35
2018-09-26T09:52:37.775Z,11.35
2018-09-26T09:55:06.087Z,11.64
2018-09-26T09:57:34.374Z,11.58
2018-09-26T10:00:02.755Z,11.55
2018-09-26T10:02:31.051Z,11.81
2018-09-26T10:04:59.687Z,11.80
2018-09-26T10:07:28.016Z,11.82
2018-09-26T10:09:56.344Z,11.74
2018-09-26T10:12:24.712Z,12.02
2018-09-26T10:14:53.244Z,12.20
2018-09-26T10:17:21.589Z,12.16
2018-09-26T10:19:49.898Z,12.04
2018-09-26T10:22:18.178Z,12.04
2018-09-26T10:24:46.612Z,12.16
2018-09-26T10:27:15.094Z,12.14
2018-09-26T10:29:43.896Z,12.03
2018-09-26T10:32:13.434Z,12.49
2018-09-26T10:34:41.895Z,12.57
2018-09-26T10:37:10.327Z,12.64
2018-09-26T10:39:41.057Z,12.76
2018-09-26T10:42:09.457Z,12.57
2018-09-26T10:44:37.820Z,12.77
2018-09-26T10:47:06.129Z,12.90
2018-09-26T10:49:34.649Z,12.85
2018-09-26T10:52:03.050Z,12.89
2018-09-26T10:54:31.726Z,12.75
2018-09-26T10:57:00.550Z,12.69
2018-09-26T10:59:29.590Z,12.74
2018-09-26T11:01:57.907Z,12.72
2018-09-26T11:04:26.457Z,12.65
2018-09-26T11:06:55.133Z,12.74
2018-09-26T11:09:23.642Z,12.69
2018-09-26T11:11:52.284Z,12.56
2018-09-26T11:14:21.306Z,12.63
2018-09-26T11:16:49.725Z,12.67
2018-09-26T11:19:18.098Z,13.08
2018-09-26T11:21:46.478Z,13.20
2018-09-26T11:24:14.781Z,13.09
2018-09-26T11:26:43.217Z,13.38
2018-09-26T11:29:11.555Z,13.47
2018-09-26T11:31:39.898Z,13.36
2018-09-26T11:34:09.786Z,13.32
2018-09-26T11:36:38.397Z,13.52
2018-09-26T11:39:09.155Z,13.40
2018-09-26T11:41:37.898Z,13.42
2018-09-26T11:44:06.587Z,13.38
2018-09-26T11:46:35.242Z,13.50
2018-09-26T11:49:04.655Z,13.55
2018-09-26T11:51:33.221Z,13.74
2018-09-26T11:54:01.808Z,13.67
2018-09-26T11:56:31.134Z,13.85
2018-09-26T11:58:59.688Z,13.98
2018-09-26T12:01:28.172Z,13.88
2018-09-26T12:03:56.864Z,13.85
2018-09-26T12:06:25.381Z,13.77
2018-09-26T12:08:53.677Z,13.81
2018-09-26T12:11:22.003Z,13.49
2018-09-26T12:13:50.417Z,13.63
2018-09-26T12:16:18.892Z,13.94
2018-09-26T12:18:47.560Z,13.89
2018-09-26T12:21:16.014Z,13.92
2018-09-26T12:23:44.655Z,13.98
2018-09-26T12:26:13.353Z,14.01
2018-09-26T12:28:41.874Z,14.08
2018-09-26T12:31:10.345Z,14.12
2018-09-26T12:33:38.791Z,13.87
2018-09-26T12:36:07.291Z,14.06
2018-09-26T12:38:35.588Z,13.89
2018-09-26T12:41:03.923Z,13.89
2018-09-26T12:43:32.260Z,13.98
2018-09-26T12:46:00.666Z,14.24
2018-09-26T12:48:29.063Z,14.04
2018-09-26T12:50:57.291Z,14.28
2018-09-26T12:53:25.654Z,14.00
2018-09-26T12:55:53.992Z,14.35
2018-09-26T12:58:22.345Z,14.14
2018-09-26T13:00:50.692Z,13.98
2018-09-26T13:03:18.992Z,14.29
2018-09-26T13:05:47.290Z,14.23
2018-09-26T13:08:15.662Z,14.33
2018-09-26T13:10:44.114Z,14.36
2018-09-26T13:13:12.395Z,14.37
2018-09-26T13:15:40.719Z,14.37
2018-09-26T13:18:09.051Z,14.22
2018-09-26T13:20:37.338Z,14.22
2018-09-26T13:23:05.885Z,14.09
2018-09-26T13:25:34.318Z,14.48
2018-09-26T13:28:02.514Z,14.43
2018-09-26T13:30:30.862Z,14.38
2018-09-26T13:32:59.134Z,14.41
2018-09-26T13:35:27.478Z,14.62
2018-09-26T13:37:55.813Z,14.75
2018-09-26T13:40:24.189Z,14.95
2018-09-26T13:42:52.441Z,14.86
2018-09-26T13:45:20.749Z,14.97
2018-09-26T13:47:49.796Z,14.56
2018-09-26T13:50:18.125Z,14.52
2018-09-26T13:52:46.452Z,14.60
2018-09-26T13:55:14.768Z,14.42
2018-09-26T13:57:43.362Z,14.51
2018-09-26T14:00:14.952Z,14.90
2018-09-26T14:02:43.492Z,14.70
2018-09-26T14:05:11.847Z,14.75
2018-09-26T14:07:40.439Z,14.64
2018-09-26T14:10:09.255Z,14.63
2018-09-26T14:12:37.576Z,14.95
2018-09-26T14:15:05.919Z,14.94
2018-09-26T14:17:34.516Z,14.66
2018-09-26T14:20:19.741Z,15.16
2018-09-26T14:22:48.359Z,15.24
2018-09-26T14:25:16.977Z,15.09
2018-09-26T14:27:45.623Z,14.94
2018-09-26T14:30:14.209Z,14.76
2018-09-26T14:32:42.733Z,14.80
2018-09-26T14:35:11.475Z,14.97
2018-09-26T14:37:40.371Z,15.19
2018-09-26T14:40:09.787Z,15.14
2018-09-26T14:42:38.745Z,14.92
2018-09-26T14:45:07.334Z,14.89
2018-09-26T14:47:35.876Z,15.09
2018-09-26T14:50:04.753Z,15.16
2018-09-26T14:52:33.442Z,15.08
2018-09-26T14:55:01.938Z,15.09
2018-09-26T14:57:30.490Z,15.16
2018-09-26T14:59:58.986Z,15.24
2018-09-26T15:02:27.641Z,15.13
2018-09-26T15:04:56.150Z,15.28
2018-09-26T15:07:24.699Z,15.17
2018-09-26T15:09:53.247Z,15.20
2018-09-26T15:12:21.861Z,15.11
2018-09-26T15:14:50.495Z,15.22
2018-09-26T15:17:18.991Z,15.16
2018-09-26T15:19:47.686Z,15.22
2018-09-26T15:22:16.397Z,15.14
2018-09-26T15:24:44.970Z,14.63
2018-09-26T15:27:13.546Z,14.52
2018-09-26T15:29:42.002Z,14.69
2018-09-26T15:32:10.525Z,14.70
2018-09-26T15:34:39.045Z,14.65
2018-09-26T15:37:07.595Z,14.51
2018-09-26T15:39:38.595Z,14.71
2018-09-26T15:42:07.410Z,14.71
2018-09-26T15:44:37.298Z,14.85
2018-09-26T15:47:05.913Z,14.71
2018-09-26T15:49:34.341Z,14.66
2018-09-26T15:52:02.885Z,14.65
2018-09-26T15:54:31.313Z,14.68
2018-09-26T15:56:59.779Z,14.88
2018-09-26T15:59:28.324Z,14.56
2018-09-26T16:01:56.825Z,14.60
2018-09-26T16:04:26.828Z,14.53
2018-09-26T16:06:55.123Z,14.32
2018-09-26T16:09:23.578Z,14.15
2018-09-26T16:11:52.947Z,14.10
2018-09-26T16:14:22.652Z,13.96
2018-09-26T16:16:50.965Z,13.89
2018-09-26T16:19:19.399Z,13.89
2018-09-26T16:21:48.505Z,13.78
2018-09-26T16:24:16.912Z,13.76
2018-09-26T16:26:45.559Z,13.66
2018-09-26T16:29:14.038Z,13.65
2018-09-26T16:31:42.394Z,13.54
2018-09-26T16:34:10.696Z,13.42
2018-09-26T16:36:38.976Z,13.37
2018-09-26T16:39:11.546Z,13.39
2018-09-26T16:41:42.014Z,13.31
2018-09-26T16:44:10.489Z,13.38
2018-09-26T16:46:38.958Z,13.58
2018-09-26T16:49:07.284Z,13.48
2018-09-26T16:51:35.633Z,13.40
2018-09-26T16:54:04.055Z,13.24
2018-09-26T16:56:32.449Z,13.04
2018-09-26T16:59:00.717Z,13.01
2018-09-26T17:01:29.018Z,12.94
2018-09-26T17:03:57.335Z,12.89
2018-09-26T17:06:25.669Z,12.60
2018-09-26T17:08:54.380Z,12.43
2018-09-26T17:11:22.797Z,12.35
2018-09-26T17:13:51.077Z,12.40
2018-09-26T17:16:20.481Z,12.27
2018-09-26T17:18:48.914Z,12.09
2018-09-26T17:21:17.284Z,12.07
2018-09-26T17:23:45.596Z,11.93
2018-09-26T17:26:14.977Z,11.80
2018-09-26T17:28:43.347Z,11.70
2018-09-26T17:31:11.723Z,11.63
2018-09-26T17:33:41.329Z,11.54
2018-09-26T17:36:09.595Z,11.44
2018-09-26T17:38:37.936Z,11.42
2018-09-26T17:41:06.269Z,11.28
2018-09-26T17:43:36.625Z,11.21
2018-09-26T17:46:04.967Z,11.17
2018-09-26T17:48:33.501Z,11.44
2018-09-26T17:51:01.796Z,11.67
2018-09-26T17:53:31.297Z,12.04
2018-09-26T17:55:59.680Z,12.01
2018-09-26T17:58:28.011Z,12.08
2018-09-26T18:00:58.338Z,12.56
2018-09-26T18:03:26.682Z,12.64
2018-09-26T18:05:55.172Z,12.77
2018-09-26T18:08:23.456Z,12.80
2018-09-26T18:10:52.568Z,12.68
2018-09-26T18:13:20.934Z,12.75
2018-09-26T18:15:49.183Z,12.69
2018-09-26T18:18:24.083Z,12.84
2018-09-26T18:20:53.423Z,12.88
2018-09-26T18:23:21.806Z,12.83
2018-09-26T18:25:50.180Z,12.79
2018-09-26T18:28:19.533Z,12.76
2018-09-26T18:30:47.813Z,12.74
2018-09-26T18:33:16.247Z,12.90
2018-09-26T18:35:44.666Z,12.88
2018-09-26T18:38:13.245Z,12.89
2018-09-26T18:40:41.537Z,12.77
2018-09-26T18:43:09.836Z,12.70
2018-09-26T18:45:39.158Z,12.91
2018-09-26T18:48:07.489Z,12.74
2018-09-26T18:50:36.950Z,12.85
2018-09-26T18:53:06.035Z,12.65
2018-09-26T18:55:34.595Z,12.72
2018-09-26T18:58:03.489Z,12.61
2018-09-26T19:00:32.186Z,12.52
2018-09-26T19:03:00.927Z,12.44
2018-09-26T19:05:29.361Z,12.39
2018-09-26T19:07:57.722Z,12.63
2018-09-26T19:10:26.917Z,12.57
2018-09-26T19:12:55.417Z,12.65
2018-09-26T19:15:23.645Z,12.40
2018-09-26T19:17:52.052Z,12.75
2018-09-26T19:20:20.768Z,12.57
2018-09-26T19:22:50.271Z,12.42
2018-09-26T19:25:18.622Z,12.36
2018-09-26T19:27:46.891Z,12.39
2018-09-26T19:30:15.353Z,12.28
2018-09-26T19:32:43.737Z,12.51
2018-09-26T19:35:12.041Z,12.21
2018-09-26T19:37:40.412Z,12.29
2018-09-26T19:40:09.199Z,12.34
2018-09-26T19:42:38.892Z,12.25
2018-09-26T19:45:07.971Z,12.26
2018-09-26T19:48:40.313Z,12.29
2018-09-26T19:51:08.606Z,12.29
2018-09-26T19:53:36.876Z,12.41
2018-09-26T19:56:06.712Z,12.56
2018-09-26T19:58:35.013Z,12.59
2018-09-26T20:01:03.297Z,12.61
2018-09-26T20:03:32.311Z,12.47
2018-09-26T20:06:00.542Z,12.44
2018-09-26T20:08:28.819Z,12.46
2018-09-26T20:10:58.213Z,12.69
2018-09-26T20:13:26.632Z,12.84
2018-09-26T20:15:54.953Z,12.69
2018-09-26T20:18:23.272Z,12.79
2018-09-26T20:20:51.581Z,12.73
2018-09-26T20:23:19.956Z,12.75
2018-09-26T20:25:48.132Z,12.90
2018-09-26T20:28:16.515Z,13.04
2018-09-26T20:30:44.810Z,12.93
2018-09-26T20:33:13.514Z,12.96
2018-09-26T20:35:41.831Z,12.84
2018-09-26T20:38:10.106Z,12.85
2018-09-26T20:40:38.382Z,12.73
2018-09-26T20:43:06.646Z,12.91
2018-09-26T20:45:34.984Z,12.85
2018-09-26T20:48:03.278Z,12.69
2018-09-26T20:50:32.861Z,12.59
2018-09-26T20:53:01.717Z,12.55
2018-09-26T20:55:30.320Z,12.74
2018-09-26T20:57:58.649Z,12.66
2018-09-26T21:00:27.383Z,12.56
2018-09-26T21:02:56.050Z,12.36
2018-09-26T21:05:24.420Z,12.28
2018-09-26T21:07:52.718Z,11.99
2018-09-26T21:10:21.117Z,11.86
2018-09-26T21:12:49.434Z,12.02
2018-09-26T21:15:17.694Z,12.15
2018-09-26T21:17:45.998Z,12.38
2018-09-26T21:20:14.331Z,12.37
2018-09-26T21:22:42.708Z,12.30
2018-09-26T21:25:10.992Z,12.35
2018-09-26T21:27:39.241Z,12.22
2018-09-26T21:30:07.569Z,12.24
2018-09-26T21:32:35.810Z,12.24
2018-09-26T21:35:06.201Z,12.34
2018-09-26T21:37:34.527Z,12.22
2018-09-26T21:40:02.823Z,12.28
2018-09-26T21:42:31.209Z,12.15
2018-09-26T21:44:59.489Z,12.13
2018-09-26T21:47:27.733Z,12.25
2018-09-26T21:49:56.705Z,12.19
2018-09-26T21:52:24.956Z,12.22
2018-09-26T21:54:53.265Z,11.98
2018-09-26T21:57:21.536Z,12.14
2018-09-26T21:59:49.885Z,12.09
2018-09-26T22:02:18.187Z,12.10
2018-09-26T22:04:46.495Z,12.24
2018-09-26T22:07:14.857Z,12.14
2018-09-26T22:09:43.196Z,12.16
2018-09-26T22:12:11.538Z,12.15
2018-09-26T22:14:39.836Z,11.97
2018-09-26T22:17:08.198Z,11.53
2018-09-26T22:19:36.503Z,11.32
2018-09-26T22:22:04.832Z,11.17
2018-09-26T22:24:33.187Z,11.02
2018-09-26T22:27:01.543Z,10.72
2018-09-26T22:29:29.847Z,10.70
2018-09-26T22:31:58.164Z,10.38
2018-09-26T22:34:26.446Z,10.26
2018-09-26T22:36:54.762Z,10.27
2018-09-26T22:39:23.195Z,10.18
2018-09-26T22:41:51.525Z,10.14
2018-09-26T22:44:19.842Z,10.11
2018-09-26T22:46:48.162Z,10.20
2018-09-26T22:49:16.476Z,10.15
2018-09-26T22:51:44.794Z,10.26
2018-09-26T22:54:13.138Z,10.69
2018-09-26T22:56:41.994Z,11.27
2018-09-26T22:59:10.286Z,11.66
2018-09-26T23:01:38.581Z,11.90
2018-09-26T23:04:06.900Z,11.66
2018-09-26T23:06:35.239Z,11.59
2018-09-26T23:09:03.581Z,11.64
2018-09-26T23:11:31.919Z,11.91
2018-09-26T23:14:00.212Z,11.83
2018-09-26T23:16:28.535Z,11.92
2018-09-26T23:18:56.861Z,11.97
2018-09-26T23:21:25.180Z,11.74
2018-09-26T23:23:53.510Z,11.58
2018-09-26T23:26:21.831Z,11.85
2018-09-26T23:28:50.162Z,11.71
2018-09-26T23:31:18.470Z,11.47
2018-09-26T23:33:46.756Z,11.13
2018-09-26T23:36:15.082Z,11.25
2018-09-26T23:38:43.368Z,11.20
2018-09-26T23:41:11.707Z,11.56
2018-09-26T23:43:39.991Z,11.59
2018-09-26T23:46:08.337Z,11.60
2018-09-26T23:48:36.699Z,11.65
2018-09-26T23:51:05.003Z,11.68
2018-09-26T23:53:33.335Z,11.53
2018-09-26T23:56:01.621Z,11.56
2018-09-26T23:58:29.926Z,11.58
